Time;durP1;ratioP1;P1;durP2;ratioP2;P2;SDS_P1;SDS_P2;PMS_P1;PMS_P2;Temp;Humidity;BMP_temperature;BMP_pressure;BME280_temperature;BME280_humidity;BME280_pressure;Samples;Min_cycle;Max_cycle;Signal;HPM_P1;HPM_P2
2022/06/17 00:01:58;;;;;;;2.20;1.30;;;;;;;18.08;47.90;100484.75;12203132;19;20014;-80
2022/06/17 00:06:03;;;;;;;7.75;1.50;;;;;;;18.04;48.01;100482.81;12201757;19;20350;-80
2022/06/17 00:10:10;;;;;;;2.53;1.50;;;;;;;17.95;48.60;100502.09;12186154;19;20034;-80
2022/06/17 00:14:18;;;;;;;3.42;1.60;;;;;;;17.88;49.34;100496.81;12199678;19;20015;-82
2022/06/17 00:18:23;;;;;;;4.40;1.65;;;;;;;17.80;49.58;100494.59;12190972;19;20026;-82
2022/06/17 00:22:25;;;;;;;3.22;1.80;;;;;;;17.73;50.46;100494.84;12209079;19;20066;-81
2022/06/17 00:26:27;;;;;;;6.78;1.63;;;;;;;17.61;50.70;100479.50;12212757;19;20078;-80
2022/06/17 00:30:32;;;;;;;4.28;1.60;;;;;;;17.56;51.23;100474.78;12179851;19;20022;-82
2022/06/17 00:34:34;;;;;;;4.15;1.80;;;;;;;17.50;51.39;100467.56;12202380;19;20031;-80
2022/06/17 00:38:36;;;;;;;3.08;1.48;;;;;;;17.45;51.17;100453.63;12208022;19;20010;-80
2022/06/17 00:42:38;;;;;;;3.60;1.58;;;;;;;17.42;52.03;100448.63;12185496;19;20006;-80
2022/06/17 00:46:46;;;;;;;2.28;1.48;;;;;;;17.40;51.54;100443.34;12192446;19;20010;-80
2022/06/17 00:50:56;;;;;;;1.38;1.15;;;;;;;17.35;52.62;100431.34;12209968;19;20030;-81
2022/06/17 00:55:24;;;;;;;3.70;1.60;;;;;;;17.39;51.74;100444.44;12180652;19;20074;-81
2022/06/17 00:59:26;;;;;;;2.28;1.50;;;;;;;17.39;51.63;100440.81;12209221;19;20035;-80
2022/06/17 01:03:33;;;;;;;3.40;1.48;;;;;;;17.35;51.90;100434.97;12180410;19;20620;-82
2022/06/17 01:07:59;;;;;;;5.38;1.55;;;;;;;17.28;52.09;100438.06;12196199;19;20036;-81
2022/06/17 01:12:04;;;;;;;4.97;1.73;;;;;;;17.25;52.06;100449.75;12202349;19;20062;-82
2022/06/17 01:16:07;;;;;;;2.22;1.63;;;;;;;17.22;51.96;100467.03;12178889;19;20014;-81
2022/06/17 01:20:12;;;;;;;4.90;1.90;;;;;;;17.15;52.84;100460.03;12204566;19;20463;-80
2022/06/17 01:24:16;;;;;;;2.25;1.40;;;;;;;17.11;53.12;100462.56;12177795;19;20013;-81
2022/06/17 01:28:19;;;;;;;4.82;1.60;;;;;;;17.05;53.93;100463.66;12195559;19;20488;-82
2022/06/17 01:32:25;;;;;;;4.20;1.98;;;;;;;17.05;54.06;100461.72;12198089;19;20548;-81
2022/06/17 01:36:29;;;;;;;1.85;1.42;;;;;;;16.98;54.63;100465.88;12174483;19;20027;-82
2022/06/17 01:40:31;;;;;;;3.97;1.67;;;;;;;16.90;55.04;100475.63;12196688;19;20667;-81
2022/06/17 01:44:37;;;;;;;3.78;1.35;;;;;;;16.86;54.99;100471.69;12195383;19;20077;-82
2022/06/17 01:48:43;;;;;;;5.10;1.75;;;;;;;16.82;55.50;100468.63;12182554;19;20082;-81
2022/06/17 01:52:52;;;;;;;3.38;1.67;;;;;;;16.80;55.71;100475.56;12203355;19;20018;-80
2022/06/17 01:56:57;;;;;;;5.40;1.80;;;;;;;16.78;55.47;100473.09;12235362;19;20017;-79
2022/06/17 02:01:01;;;;;;;4.93;1.65;;;;;;;16.77;55.76;100467.78;12206808;19;20019;-81
2022/06/17 02:05:06;;;;;;;2.70;1.70;;;;;;;16.76;55.97;100472.50;12211656;19;20028;-80
2022/06/17 02:09:10;;;;;;;2.47;1.35;;;;;;;16.72;55.58;100478.88;12185613;19;20014;-81
2022/06/17 02:13:16;;;;;;;5.55;1.67;;;;;;;16.68;55.83;100474.97;12204746;19;20487;-81
2022/06/17 02:17:42;;;;;;;2.55;1.38;;;;;;;16.69;55.76;100477.50;12201976;19;20011;-82
2022/06/17 02:22:14;;;;;;;4.43;1.80;;;;;;;16.65;56.00;100479.13;12192886;19;20006;-79
2022/06/17 02:26:20;;;;;;;4.28;2.00;;;;;;;16.61;56.24;100478.84;12217798;19;20011;-81
2022/06/17 02:30:23;;;;;;;2.83;1.60;;;;;;;16.57;56.85;100482.47;12189933;19;20044;-80
2022/06/17 02:34:27;;;;;;;2.28;1.83;;;;;;;16.52;57.10;100496.34;12214824;19;20025;-80
2022/06/17 02:38:32;;;;;;;2.08;1.35;;;;;;;16.46;57.27;100486.31;12214126;19;20059;-81
2022/06/17 02:42:38;;;;;;;2.78;1.52;;;;;;;16.41;57.22;100489.91;12196391;19;20010;-83
2022/06/17 02:46:41;;;;;;;3.72;1.77;;;;;;;16.30;57.43;100486.25;12203412;19;20014;-83
2022/06/17 02:50:43;;;;;;;3.90;1.65;;;;;;;16.24;57.37;100478.13;12207099;19;20011;-82
2022/06/17 02:54:54;;;;;;;2.58;1.52;;;;;;;16.20;57.48;100472.28;12185844;19;20508;-82
2022/06/17 02:59:03;;;;;;;4.97;1.55;;;;;;;16.16;58.04;100483.13;12218663;19;20361;-82
2022/06/17 03:03:13;;;;;;;2.78;1.80;;;;;;;16.15;57.95;100478.69;12215993;19;20443;-82
2022/06/17 03:07:17;;;;;;;5.70;2.00;;;;;;;16.14;57.88;100482.53;12190232;19;20015;-82
2022/06/17 03:11:23;;;;;;;2.88;1.65;;;;;;;16.08;58.49;100478.06;12206946;19;20078;-81
2022/06/17 03:15:25;;;;;;;4.78;1.70;;;;;;;16.02;58.81;100479.16;12178237;19;20024;-79
2022/06/17 03:19:28;;;;;;;4.50;1.70;;;;;;;15.86;59.51;100486.56;12212712;19;20080;-81
2022/06/17 03:23:36;;;;;;;3.03;1.48;;;;;;;15.78;60.07;100487.06;12208845;19;20078;-81
2022/06/17 03:27:44;;;;;;;2.53;1.70;;;;;;;15.75;60.97;100487.59;12180466;19;20003;-81
2022/06/17 03:31:52;;;;;;;3.80;1.75;;;;;;;15.70;61.32;100496.75;12204451;19;20155;-77
2022/06/17 03:35:59;;;;;;;4.75;3.25;;;;;;;15.64;61.02;100494.16;12210907;19;20027;-81
2022/06/17 03:40:06;;;;;;;3.13;1.80;;;;;;;15.57;60.95;100499.13;12191059;19;20052;-81
2022/06/17 03:44:17;;;;;;;6.85;1.80;;;;;;;15.51;61.28;100512.13;12199172;19;20025;-80
2022/06/17 03:48:29;;;;;;;5.38;1.85;;;;;;;15.41;61.11;100529.56;12183404;19;20760;-82
2022/06/17 03:52:43;;;;;;;3.17;1.58;;;;;;;15.33;63.28;100527.25;12210915;19;20038;-81
2022/06/17 03:56:52;;;;;;;3.75;2.08;;;;;;;15.32;63.58;100524.72;12210899;19;20050;-80
2022/06/17 04:01:39;;;;;;;2.90;1.90;;;;;;;15.31;63.73;100540.56;12197493;19;20034;-81
2022/06/17 04:05:55;;;;;;;4.78;1.98;;;;;;;15.20;63.75;100536.84;12201586;19;20026;-80
2022/06/17 04:09:56;;;;;;;6.28;2.38;;;;;;;15.15;63.95;100536.81;12187824;19;20023;-80
2022/06/17 04:14:03;;;;;;;5.32;1.98;;;;;;;15.16;64.86;100543.19;12207265;19;20017;-79
2022/06/17 04:18:05;;;;;;;5.18;1.80;;;;;;;15.18;64.04;100549.31;12209842;19;21086;-81
2022/06/17 04:22:23;;;;;;;4.05;2.03;;;;;;;15.21;65.15;100554.34;12188918;19;20006;-80
2022/06/17 04:26:54;;;;;;;3.60;1.90;;;;;;;15.21;65.42;100557.97;12204890;19;20482;-80
2022/06/17 04:31:01;;;;;;;6.90;2.13;;;;;;;15.26;65.42;100573.84;12192609;19;20481;-81
2022/06/17 04:35:03;;;;;;;3.67;2.05;;;;;;;15.34;65.31;100570.56;12210627;19;20018;-80
2022/06/17 04:39:23;;;;;;;3.13;1.92;;;;;;;15.43;65.15;100574.53;12201468;19;20014;-81
2022/06/17 04:43:47;;;;;;;5.13;1.95;;;;;;;15.49;64.91;100573.47;12107466;19;2004396;-79
2022/06/17 04:47:51;;;;;;;4.13;2.17;;;;;;;15.54;65.17;100589.38;12216459;19;20011;-81
2022/06/17 04:52:03;;;;;;;3.65;1.90;;;;;;;15.62;65.26;100590.84;12191583;19;20019;-79
2022/06/17 04:56:08;;;;;;;6.43;2.08;;;;;;;15.68;65.53;100589.81;12197869;19;20116;-81
2022/06/17 05:00:26;;;;;;;4.97;1.77;;;;;;;15.79;65.67;100586.00;12179325;19;20023;-81
2022/06/17 05:04:33;;;;;;;5.28;2.17;;;;;;;15.92;65.59;100580.00;12205270;19;20638;-82
2022/06/17 05:08:42;;;;;;;3.65;1.63;;;;;;;16.05;65.92;100575.91;12202880;19;20027;-81
2022/06/17 05:12:54;;;;;;;3.95;2.00;;;;;;;16.18;66.14;100580.16;12183009;19;20055;-81
2022/06/17 05:16:57;;;;;;;8.13;1.90;;;;;;;16.29;66.10;100579.13;12198600;19;20014;-81
2022/06/17 05:21:02;;;;;;;4.00;1.95;;;;;;;16.38;66.22;100576.66;12235774;19;20002;-79
2022/06/17 05:25:11;;;;;;;4.75;2.10;;;;;;;16.46;66.66;100583.69;12197986;19;20022;-81
2022/06/17 05:29:13;;;;;;;4.18;1.88;;;;;;;16.52;66.73;100585.38;12202920;19;20010;-80
2022/06/17 05:33:37;;;;;;;3.35;2.17;;;;;;;16.58;66.70;100589.84;12188938;19;20011;-80
2022/06/17 05:37:39;;;;;;;5.03;2.08;;;;;;;16.65;66.59;100584.88;12197565;19;20085;-82
2022/06/17 05:41:43;;;;;;;3.85;2.13;;;;;;;16.72;66.43;100585.47;12212146;19;20365;-81
2022/06/17 05:45:45;;;;;;;3.47;2.15;;;;;;;16.82;66.43;100585.53;12174610;19;20006;-81
2022/06/17 05:50:04;;;;;;;4.13;2.00;;;;;;;16.93;66.46;100582.81;12193934;19;20044;-82
2022/06/17 05:54:25;;;;;;;4.60;1.83;;;;;;;17.05;66.63;100578.66;12177571;19;20046;-81
2022/06/17 05:58:44;;;;;;;4.80;1.75;;;;;;;17.18;66.02;100580.06;12197983;19;20796;-82
2022/06/17 06:02:46;;;;;;;3.13;2.00;;;;;;;17.37;65.60;100585.97;12202139;19;20023;-81
2022/06/17 06:06:59;;;;;;;6.25;2.38;;;;;;;17.57;65.83;100590.72;12177227;19;20031;-82
2022/06/17 06:11:06;;;;;;;2.60;1.48;;;;;;;17.74;65.80;100596.03;12204804;19;20139;-82
2022/06/17 06:15:13;;;;;;;2.97;1.77;;;;;;;18.00;64.10;100610.84;12190500;19;20042;-82
2022/06/17 06:19:30;;;;;;;3.35;1.60;;;;;;;18.22;62.56;100607.72;12201580;19;20011;-82
2022/06/17 06:23:36;;;;;;;6.35;1.50;;;;;;;18.46;61.39;100610.75;12211731;19;20010;-80
2022/06/17 06:27:37;;;;;;;8.10;1.92;;;;;;;18.77;60.37;100613.47;12173721;19;20011;-81
2022/06/17 06:31:40;;;;;;;9.20;1.80;;;;;;;19.08;59.48;100615.00;12203626;19;20014;-81
2022/06/17 06:36:02;;;;;;;3.90;1.47;;;;;;;19.40;58.28;100610.94;12204655;19;20301;-81
2022/06/17 06:40:05;;;;;;;5.05;1.88;;;;;;;19.69;57.23;100610.19;12188506;19;20010;-81
2022/06/17 06:44:09;;;;;;;4.10;1.50;;;;;;;19.90;55.44;100608.91;12184212;19;20003;-80
2022/06/17 06:48:30;;;;;;;3.60;1.67;;;;;;;20.17;53.92;100610.34;12179075;19;20383;-82
2022/06/17 06:52:32;;;;;;;3.60;1.40;;;;;;;20.34;51.93;100624.72;12187088;19;20025;-82
2022/06/17 06:56:34;;;;;;;5.73;1.47;;;;;;;20.55;51.66;100613.31;12202653;19;20090;-82
2022/06/17 07:00:39;;;;;;;4.25;1.73;;;;;;;20.79;50.62;100608.59;12173796;19;20019;-82
2022/06/17 07:04:41;;;;;;;5.63;1.30;;;;;;;21.07;49.95;100620.00;12195785;19;20010;-82
2022/06/17 07:08:43;;;;;;;4.47;1.70;;;;;;;21.28;49.16;100626.97;12204752;19;20014;-81
2022/06/17 07:12:48;;;;;;;4.07;1.30;;;;;;;21.54;48.97;100632.25;12173172;19;20021;-84
2022/06/17 07:16:50;;;;;;;3.13;1.52;;;;;;;21.73;48.08;100629.44;12217799;19;20350;-84
2022/06/17 07:21:01;;;;;;;2.90;1.23;;;;;;;21.96;47.71;100636.09;12213845;19;20010;-83
2022/06/17 07:25:02;;;;;;;2.83;1.27;;;;;;;22.20;46.63;100621.94;12196493;19;20027;-84
2022/06/17 07:29:04;;;;;;;2.27;1.50;;;;;;;22.38;46.18;100621.03;12226382;19;20499;-84
2022/06/17 07:33:06;;;;;;;2.75;1.10;;;;;;;22.52;45.42;100615.47;12214674;19;20007;-84
2022/06/17 07:41:33;;;;;;;3.80;1.38;;;;;;;23.04;43.50;100599.22;12215703;19;20039;-84
2022/06/17 07:45:35;;;;;;;2.65;1.58;;;;;;;23.21;42.71;100609.84;12196701;19;19999;-86
2022/06/17 07:49:38;;;;;;;5.90;1.77;;;;;;;23.37;42.61;100610.31;12219575;19;20006;-84
2022/06/17 07:53:43;;;;;;;4.00;1.52;;;;;;;23.60;42.31;100614.81;12210636;19;20036;-85
2022/06/17 07:57:48;;;;;;;3.13;1.27;;;;;;;23.86;41.31;100597.38;12199030;19;20045;-85
2022/06/17 08:01:50;;;;;;;2.28;1.20;;;;;;;24.02;40.92;100598.63;12206050;19;20138;-85
2022/06/17 08:10:35;;;;;;;5.63;1.35;;;;;;;24.10;39.62;100606.31;12209960;19;19910;-84
2022/06/17 08:19:31;;;;;;;3.83;1.50;;;;;;;24.42;38.76;100589.41;12184888;19;20062;-84
2022/06/17 08:23:33;;;;;;;5.53;1.23;;;;;;;24.63;37.49;100593.34;12236022;19;20015;-84
2022/06/17 08:27:47;;;;;;;5.57;1.63;;;;;;;25.01;37.71;100602.06;12192253;19;20075;-86
2022/06/17 08:31:49;;;;;;;3.67;1.50;;;;;;;25.20;37.12;100610.28;12205566;19;20493;-85
2022/06/17 08:36:06;;;;;;;2.93;1.30;;;;;;;25.36;36.40;100609.81;12214055;19;20403;-85
2022/06/17 08:40:35;;;;;;;2.75;1.20;;;;;;;25.53;35.68;100597.72;12193515;19;20017;-84
2022/06/17 08:44:53;;;;;;;3.97;1.38;;;;;;;25.68;35.41;100594.41;12253122;19;20017;-85
2022/06/17 08:49:29;;;;;;;4.75;1.90;;;;;;;25.98;35.16;100581.28;12201648;19;20010;-85
2022/06/17 09:09:09;;;;;;;2.47;1.15;;;;;;;26.49;33.48;100567.34;12188506;19;20024;-84
2022/06/17 09:13:35;;;;;;;11.02;5.50;;;;;;;26.61;33.40;100570.28;12194660;19;20100;-83
2022/06/17 09:17:55;;;;;;;14.55;2.17;;;;;;;26.58;31.29;100568.97;12212645;19;20014;-83
2022/06/17 09:33:18;;;;;;;2.67;1.30;;;;;;;27.41;31.77;100569.50;12230418;19;20093;-86
2022/06/17 09:37:46;;;;;;;4.53;1.20;;;;;;;27.52;31.45;100567.91;12188256;19;20046;-84
2022/06/17 09:43:04;;;;;;;2.50;1.30;;;;;;;27.64;29.60;100584.13;12186778;19;20032;-86
2022/06/17 09:53:34;;;;;;;5.78;1.38;;;;;;;27.55;29.59;100589.88;12222255;19;20022;-86
2022/06/17 10:03:12;;;;;;;4.50;2.03;;;;;;;28.02;30.43;100592.47;12208375;19;20018;-84
2022/06/17 10:08:00;;;;;;;3.85;1.20;;;;;;;28.06;29.25;100584.91;12203433;19;20041;-86
2022/06/17 10:26:43;;;;;;;4.50;1.23;;;;;;;28.33;28.69;100571.28;12200440;19;20085;-84
2022/06/17 10:31:51;;;;;;;4.28;1.27;;;;;;;28.25;29.38;100552.38;12207367;19;20022;-84
2022/06/17 10:36:50;;;;;;;8.52;2.85;;;;;;;28.75;29.30;100548.44;12225291;19;20487;-85
2022/06/17 10:41:38;;;;;;;6.57;1.50;;;;;;;29.25;28.81;100542.34;12105690;19;2004481;-85
2022/06/17 10:45:55;;;;;;;4.05;1.50;;;;;;;29.26;28.23;100540.34;12188494;19;20025;-83
2022/06/17 10:50:06;;;;;;;4.40;1.60;;;;;;;29.48;27.39;100539.00;12221558;19;20030;-84
2022/06/17 10:54:23;;;;;;;3.78;1.27;;;;;;;29.70;27.45;100532.75;12217129;19;20038;-83
2022/06/17 10:58:29;;;;;;;2.78;1.48;;;;;;;29.79;27.61;100532.59;12189054;19;20093;-84
2022/06/17 11:02:32;;;;;;;3.50;1.73;;;;;;;29.71;28.45;100533.59;12208079;19;20445;-83
2022/06/17 11:06:47;;;;;;;3.35;1.23;;;;;;;29.87;27.98;100547.84;12183196;19;20014;-83
2022/06/17 11:12:02;;;;;;;4.10;1.48;;;;;;;30.02;28.18;100532.84;12212518;19;20011;-83
2022/06/17 11:15:43;;;;;;;;;;;;;;;30.39;27.98;100538.31;12175768;19;20757;-83
2022/06/17 11:19:57;;;;;;;3.97;1.50;;;;;;;30.67;27.05;100532.53;12199902;19;19923;-84
2022/06/17 11:24:01;;;;;;;3.75;1.65;;;;;;;30.87;26.30;100530.59;12205576;19;20021;-84
2022/06/17 11:28:19;;;;;;;1.70;1.20;;;;;;;30.89;26.73;100525.34;12179244;19;20006;-82
2022/06/17 11:32:28;;;;;;;2.88;1.40;;;;;;;31.14;25.67;100523.06;12203818;19;20002;-84
2022/06/17 11:36:46;;;;;;;3.05;1.50;;;;;;;31.34;25.63;100526.78;12179757;19;20027;-84
2022/06/17 11:40:55;;;;;;;3.15;1.45;;;;;;;31.59;25.51;100506.56;12215819;19;20014;-83
2022/06/17 11:45:05;;;;;;;3.88;1.50;;;;;;;31.87;24.81;100503.47;12212165;19;20006;-83
2022/06/17 11:49:15;;;;;;;3.83;1.58;;;;;;;31.81;25.21;100502.94;12188189;19;20006;-85
2022/06/17 11:53:20;;;;;;;2.05;1.48;;;;;;;31.82;25.84;100489.53;12211715;19;20472;-82
2022/06/17 11:57:44;;;;;;;2.08;1.25;;;;;;;32.11;24.47;100482.38;12186878;19;20354;-83
2022/06/17 12:01:48;;;;;;;4.88;1.20;;;;;;;32.52;24.36;100482.69;12218508;19;20035;-83
2022/06/17 12:06:07;;;;;;;7.45;1.40;;;;;;;32.79;24.20;100481.47;12210397;19;21849;-83
2022/06/17 12:10:50;;;;;;;2.72;1.40;;;;;;;32.84;23.70;100486.00;12193547;19;20086;-84
2022/06/17 12:15:01;;;;;;;2.80;1.98;;;;;;;33.04;23.86;100469.59;12238315;19;20003;-84
2022/06/17 12:19:11;;;;;;;6.47;2.03;;;;;;;33.51;22.70;100463.31;12223907;19;20081;-84
2022/06/17 12:23:26;;;;;;;4.55;1.80;;;;;;;34.36;22.61;100471.13;12206850;19;20507;-85
2022/06/17 12:27:32;;;;;;;3.40;1.73;;;;;;;35.53;21.86;100470.22;12189209;19;20451;-85
2022/06/17 12:32:00;;;;;;;3.13;1.70;;;;;;;36.50;20.08;100462.59;12212150;19;20011;-84
2022/06/17 12:36:06;;;;;;;2.17;1.70;;;;;;;37.35;19.51;100460.78;12205544;19;20020;-84
2022/06/17 12:40:44;;;;;;;5.22;1.67;;;;;;;37.92;18.83;100448.16;12186298;19;20017;-86
2022/06/17 12:45:14;;;;;;;5.63;1.90;;;;;;;38.63;18.35;100438.13;12202653;19;20018;-82
2022/06/17 12:54:12;;;;;;;2.40;1.63;;;;;;;39.89;17.80;100414.31;12197652;19;20023;-84
2022/06/17 12:58:25;;;;;;;2.15;1.40;;;;;;;40.36;16.70;100417.25;12177099;19;20007;-83
2022/06/17 13:02:44;;;;;;;4.88;1.70;;;;;;;40.72;16.50;100411.63;12198759;19;20021;-83
2022/06/17 13:07:14;;;;;;;4.90;1.45;;;;;;;41.02;15.67;100400.31;12164259;19;20018;-83
2022/06/17 13:11:25;;;;;;;1.73;1.63;;;;;;;41.71;15.53;100397.56;12191466;19;20010;-83
2022/06/17 13:15:32;;;;;;;3.87;1.43;;;;;;;42.27;15.13;100391.63;12170618;19;20757;-84
2022/06/17 13:19:47;;;;;;;3.15;1.42;;;;;;;42.10;14.50;100394.56;12192606;19;20263;-81
2022/06/17 13:24:17;;;;;;;3.25;1.52;;;;;;;41.64;14.49;100393.59;12198933;19;20006;-82
2022/06/17 13:28:50;;;;;;;2.38;1.35;;;;;;;41.75;14.56;100383.84;12182157;19;20751;-83
2022/06/17 13:33:14;;;;;;;2.63;1.27;;;;;;;41.83;14.05;100370.84;12204914;19;20010;-84
2022/06/17 13:37:19;;;;;;;3.75;1.60;;;;;;;42.35;13.77;100372.81;12179899;19;20066;-83
2022/06/17 13:41:30;;;;;;;1.67;1.25;;;;;;;42.38;13.98;100353.72;12190956;19;20015;-84
2022/06/17 13:45:32;;;;;;;;;;;;;;;42.66;14.08;100355.00;12175228;19;20007;-83
2022/06/17 13:49:47;;;;;;;3.55;1.60;;;;;;;42.70;13.64;100355.72;12207075;19;19911;-83
2022/06/17 13:54:02;;;;;;;2.15;1.52;;;;;;;43.26;13.21;100348.72;12204681;19;20437;-82
2022/06/17 13:58:32;;;;;;;2.22;1.40;;;;;;;43.95;12.95;100345.25;12190968;19;20010;-84
2022/06/17 14:02:57;;;;;;;2.40;1.40;;;;;;;44.71;12.66;100332.53;12209055;19;20366;-84
2022/06/17 14:07:01;;;;;;;2.03;1.27;;;;;;;44.84;12.39;100341.22;12176691;19;20019;-83
2022/06/17 14:15:34;;;;;;;3.55;1.42;;;;;;;46.01;12.57;100341.47;12178310;19;20022;-82
2022/06/17 14:19:42;;;;;;;2.08;1.27;;;;;;;45.59;11.24;100335.34;12214604;19;20007;-82
2022/06/17 14:23:55;;;;;;;4.93;1.88;;;;;;;46.05;11.16;100339.22;12212780;19;20010;-81
2022/06/17 14:28:00;;;;;;;3.83;1.20;;;;;;;46.54;11.06;100352.06;12190892;19;20014;-81
2022/06/17 14:32:17;;;;;;;2.05;1.20;;;;;;;45.91;11.08;100349.38;12209461;19;20002;-83
2022/06/17 14:36:49;;;;;;;2.60;1.20;;;;;;;45.97;11.18;100349.56;12213383;19;20006;-83
2022/06/17 14:45:36;;;;;;;3.25;1.25;;;;;;;45.77;11.13;100338.31;12194540;19;20480;-82
2022/06/17 14:49:38;;;;;;;4.72;1.20;;;;;;;45.45;11.88;100339.63;12212336;19;20014;-83
2022/06/17 14:53:47;;;;;;;2.83;1.20;;;;;;;45.82;10.98;100343.50;12206769;19;20003;-83
2022/06/17 14:57:55;;;;;;;3.58;1.48;;;;;;;45.33;11.42;100340.56;12199487;19;20026;-84
2022/06/17 15:02:01;;;;;;;1.10;0.90;;;;;;;44.43;11.78;100337.34;12214474;19;20031;-84
2022/06/17 15:06:05;;;;;;;2.92;1.10;;;;;;;42.64;12.26;100334.38;12207910;19;20078;-84
2022/06/17 15:10:15;;;;;;;1.25;0.80;;;;;;;41.32;13.25;100330.72;12191114;19;20014;-83
2022/06/17 15:14:19;;;;;;;2.60;1.05;;;;;;;40.39;13.73;100326.06;12209817;19;20073;-82
2022/06/17 15:18:21;;;;;;;1.48;0.95;;;;;;;41.22;12.72;100317.31;12205135;19;20353;-84
2022/06/17 15:22:28;;;;;;;3.60;1.15;;;;;;;42.19;12.10;100309.94;12222391;19;20010;-82
2022/06/17 15:26:37;;;;;;;1.42;0.95;;;;;;;40.89;12.48;100299.03;12209762;19;20360;-82
2022/06/17 15:30:47;;;;;;;2.28;0.80;;;;;;;39.36;13.31;100303.50;12192972;19;20011;-82
2022/06/17 15:34:58;;;;;;;5.55;1.00;;;;;;;37.83;14.65;100301.13;12214983;19;20006;-82
2022/06/17 15:39:02;;;;;;;3.22;0.73;;;;;;;36.52;15.30;100287.13;12227344;19;20014;-85
2022/06/17 15:43:07;;;;;;;1.63;0.90;;;;;;;35.71;15.94;100286.81;12207620;19;20010;-84
2022/06/17 15:47:09;;;;;;;3.60;1.10;;;;;;;34.81;16.57;100282.94;12208393;19;20035;-82
2022/06/17 15:51:12;;;;;;;2.25;1.00;;;;;;;34.39;16.67;100281.53;12214643;19;20010;-82
2022/06/17 15:55:23;;;;;;;0.93;0.80;;;;;;;34.07;16.93;100281.34;12192386;19;20096;-82
2022/06/17 15:59:47;;;;;;;0.98;0.80;;;;;;;33.60;17.32;100279.31;12221199;19;20014;-82
2022/06/17 16:03:59;;;;;;;3.85;0.80;;;;;;;33.42;17.86;100279.94;12190275;19;20018;-83
2022/06/17 16:08:10;;;;;;;1.40;0.87;;;;;;;33.32;18.27;100287.19;12213142;19;20010;-81
2022/06/17 16:12:43;;;;;;;5.83;1.43;;;;;;;33.20;18.49;100280.94;12207509;19;20267;-81
2022/06/17 16:16:52;;;;;;;2.78;0.90;;;;;;;33.03;18.29;100277.53;12182663;19;20464;-83
2022/06/17 16:20:54;;;;;;;1.33;0.80;;;;;;;32.80;18.88;100274.78;12201078;19;20265;-79
2022/06/17 16:25:06;;;;;;;1.83;0.90;;;;;;;32.53;19.00;100274.03;12185344;19;20102;-83
2022/06/17 16:29:26;;;;;;;;;;;;;;;32.36;18.72;100274.59;12209871;19;20046;-82
2022/06/17 16:33:34;;;;;;;3.50;1.02;;;;;;;32.13;19.19;100281.22;12190721;19;19910;-84
2022/06/17 16:37:52;;;;;;;0.80;0.80;;;;;;;31.90;19.81;100277.59;12213220;19;20553;-83
2022/06/17 16:46:50;;;;;;;3.53;0.98;;;;;;;31.74;20.10;100264.31;12190359;19;20014;-84
2022/06/17 16:50:53;;;;;;;1.23;0.88;;;;;;;31.64;20.06;100272.66;12213702;19;20046;-83
2022/06/17 16:54:56;;;;;;;4.15;0.90;;;;;;;31.51;20.30;100260.66;12184802;19;20338;-82
2022/06/17 16:59:00;;;;;;;3.80;1.00;;;;;;;31.45;20.14;100262.19;12212576;19;20070;-84
2022/06/17 17:03:02;;;;;;;2.60;1.60;;;;;;;31.38;20.15;100273.44;12207658;19;20031;-83
2022/06/17 17:07:04;;;;;;;2.60;0.88;;;;;;;31.28;19.59;100272.84;12186261;19;20010;-83
2022/06/17 17:47:40;;;;;;;1.67;0.82;;;;;;;30.75;20.76;100272.63;12205714;19;20034;-84
2022/06/17 17:52:14;;;;;;;2.88;1.13;;;;;;;30.56;21.01;100281.97;12206979;19;20013;-83
2022/06/17 17:56:29;;;;;;;4.15;1.27;;;;;;;30.41;21.09;100277.19;12204864;19;20011;-83
2022/06/17 18:00:38;;;;;;;3.17;0.90;;;;;;;30.22;21.32;100268.63;12186350;19;20460;-83
2022/06/17 18:04:41;;;;;;;2.17;0.90;;;;;;;30.09;21.66;100254.53;12208113;19;20456;-83
2022/06/17 18:08:46;;;;;;;3.03;1.02;;;;;;;29.97;22.06;100255.47;12206335;19;20006;-83
2022/06/17 18:12:51;;;;;;;2.45;0.85;;;;;;;29.76;22.32;100254.97;12185638;19;20019;-83
2022/06/17 18:16:53;;;;;;;5.38;1.02;;;;;;;29.53;23.76;100264.13;12205257;19;20006;-83
2022/06/17 18:20:54;;;;;;;;;;;;;;;29.19;23.96;100256.34;12205828;19;20017;-83
2022/06/17 18:24:57;;;;;;;2.03;0.95;;;;;;;28.86;24.74;100260.28;12181890;19;19934;-83
2022/06/17 18:29:01;;;;;;;3.33;0.85;;;;;;;28.56;25.29;100251.34;12207584;19;20081;-82
2022/06/17 18:33:03;;;;;;;3.70;0.65;;;;;;;28.23;25.84;100251.53;12208698;19;20003;-82
2022/06/17 18:37:08;;;;;;;;;;;;;;;27.92;25.75;100250.19;12178682;19;20015;-83
2022/06/17 18:45:54;;;;;;;;;;;;;;;27.39;27.29;100243.56;12183858;19;20074;-84
2022/06/17 18:49:58;;;;;;;2.22;0.80;;;;;;;27.16;28.23;100246.03;12241027;19;19918;-82
2022/06/17 18:53:59;;;;;;;1.88;0.95;;;;;;;26.96;29.10;100237.22;12204445;19;20011;-83
2022/06/17 18:58:01;;;;;;;5.55;0.80;;;;;;;26.79;29.76;100234.59;12162967;19;20013;-83
2022/06/17 19:02:12;;;;;;;1.05;0.82;;;;;;;26.58;30.19;100238.28;12207557;19;20340;-83
2022/06/17 19:06:21;;;;;;;1.90;0.98;;;;;;;26.37;31.10;100240.28;12209520;19;20003;-81
2022/06/17 19:19:08;;;;;;;4.88;1.90;;;;;;;25.77;32.08;100238.72;12198320;19;20066;-83
2022/06/17 19:23:16;;;;;;;5.15;1.98;;;;;;;25.60;31.99;100236.81;12221387;19;20085;-82
2022/06/17 19:27:20;;;;;;;3.90;1.70;;;;;;;25.42;32.56;100231.28;12219797;19;20028;-82
2022/06/17 19:31:30;;;;;;;6.10;1.90;;;;;;;25.25;32.59;100237.00;12194585;19;20550;-82
2022/06/17 19:36:00;;;;;;;2.08;1.40;;;;;;;25.04;32.72;100236.88;12213871;19;20032;-82
2022/06/17 19:40:02;;;;;;;2.70;1.35;;;;;;;24.89;32.84;100246.69;12198787;19;20014;-82
2022/06/17 19:44:06;;;;;;;6.13;1.05;;;;;;;24.71;32.95;100250.72;12209841;19;20103;-82
2022/06/17 19:48:14;;;;;;;2.47;1.10;;;;;;;24.56;33.57;100260.53;12212290;19;20027;-82
2022/06/17 19:52:30;;;;;;;1.17;1.00;;;;;;;24.42;33.46;100257.91;12189246;19;20014;-84
2022/06/17 19:56:39;;;;;;;2.25;1.00;;;;;;;24.30;33.99;100261.34;12209392;19;20010;-83
2022/06/17 20:00:42;;;;;;;1.92;0.80;;;;;;;24.17;33.60;100261.50;12195662;19;20021;-81
2022/06/17 20:04:44;;;;;;;2.55;0.93;;;;;;;24.06;34.22;100261.84;12214338;19;20358;-84
2022/06/17 20:08:47;;;;;;;1.33;0.83;;;;;;;23.97;34.25;100266.59;12202460;19;20015;-85
2022/06/17 20:12:59;;;;;;;2.17;1.10;;;;;;;23.87;34.89;100262.13;12188742;19;20011;-85
2022/06/17 20:17:05;;;;;;;3.30;1.00;;;;;;;23.79;34.74;100265.72;12194910;19;20035;-86
2022/06/17 20:21:08;;;;;;;1.77;1.02;;;;;;;23.73;34.85;100257.78;12206888;19;20007;-86
2022/06/17 20:25:11;;;;;;;4.97;1.20;;;;;;;23.69;34.77;100259.56;12185865;19;20039;-86
2022/06/17 20:29:27;;;;;;;1.25;0.70;;;;;;;23.64;35.30;100252.91;12202206;19;20007;-84
2022/06/17 20:33:31;;;;;;;3.22;1.25;;;;;;;23.58;35.00;100257.03;12181859;19;20013;-86
2022/06/17 20:37:43;;;;;;;2.80;1.05;;;;;;;23.52;35.03;100255.53;12205639;19;20014;-85
2022/06/17 20:41:46;;;;;;;2.42;1.02;;;;;;;23.43;35.04;100249.06;12217407;19;20010;-85
2022/06/17 20:50:09;;;;;;;1.30;0.90;;;;;;;23.29;35.17;100243.56;12222905;19;20007;-85
2022/06/17 20:54:14;;;;;;;1.20;0.80;;;;;;;23.25;35.63;100250.16;12213178;19;20006;-85
2022/06/17 20:58:31;;;;;;;3.05;0.93;;;;;;;23.18;35.94;100259.06;12189931;19;20360;-86
2022/06/17 21:02:33;;;;;;;5.78;1.50;;;;;;;23.12;36.02;100261.16;12208725;19;20051;-85
2022/06/17 21:06:36;;;;;;;1.63;1.00;;;;;;;23.08;35.99;100250.88;12178695;19;20027;-86
2022/06/17 21:10:40;;;;;;;2.03;0.82;;;;;;;23.03;35.96;100251.88;12215264;19;20018;-87
2022/06/17 21:14:45;;;;;;;7.47;0.95;;;;;;;22.99;36.04;100242.41;12204153;19;20376;-86
2022/06/17 21:18:47;;;;;;;1.00;0.82;;;;;;;22.96;35.93;100243.06;12178534;19;20014;-86
2022/06/17 21:23:04;;;;;;;1.17;0.80;;;;;;;22.92;36.44;100228.78;12212146;19;20010;-87
2022/06/17 21:27:15;;;;;;;1.63;0.85;;;;;;;22.90;36.22;100238.69;12204058;19;20014;-84
2022/06/17 21:31:17;;;;;;;1.33;0.85;;;;;;;22.90;36.35;100233.94;12182449;19;20034;-87
2022/06/17 21:35:24;;;;;;;1.67;1.05;;;;;;;22.91;36.52;100237.56;12202944;19;20444;-86